Meishomaru — JD3044 — position and weather

sailwx.info

Track history (hours):
 
Tides and Currents Weather Stations Pressure Air Temp Water Temp Dewpoint Dewpoint Depression Visibility Wind Speed Wind Dir Waves Ship Positions

Meishomaru

Last reported at 2016-Dec-07 10:32 UTC. Time now 2016-Dec-09 23:17 UTC.
Position N 34°36' E 135°03'.

Length 68 m; draft 3.9 m.

Type: Tanker. MMSI: 431001216.

Date/timePositionNaut miles runAvg speedWind from/ knotsBaromVisibWave heightAir tempDewpointWater temp
2016-Dec-07 10:32N 34°36' E 135°03'10 9.8
2016-Dec-07 09:33N 34°27' E 135°03'1211.4
2016-Dec-07 08:29N 34°15' E 134°59'241 8.8
2016-Dec-06 05:09N 35°20' E 139°42'712.1
2016-Dec-06 04:33N 35°26' E 139°46'8 1.4
2016-Dec-05 22:33N 35°29' E 139°56'0 0.0
2016-Dec-05 20:32N 35°29' E 139°56'0 0.0
2016-Dec-05 11:29N 35°29' E 139°56'0 0.1
2016-Dec-05 10:32N 35°29' E 139°56'0 0.1
2016-Dec-05 08:29N 35°29' E 139°56'1011.0
2016-Dec-05 07:33N 35°23' E 139°46'1311.6
2016-Dec-05 06:24N 35°09' E 139°47'15 8.2
2016-Dec-05 04:33N 35°24' E 139°43'1212.4
2016-Dec-05 03:34N 35°31' E 139°56'6 0.2
2016-Dec-04 02:26N 35°31' E 140°02'2 0.7
2016-Dec-03 23:04N 35°31' E 139°60'4 7.4
2016-Dec-03 22:33N 35°29' E 139°56'0 0.0
2016-Dec-03 21:32N 35°29' E 139°56'0 0.0
2016-Dec-03 20:29N 35°29' E 139°56'0 0.0
2016-Dec-03 19:32N 35°29' E 139°56'0 0.0
2016-Dec-03 18:32N 35°29' E 139°56'0 0.0
2016-Dec-03 17:32N 35°29' E 139°56'0 0.0
2016-Dec-03 16:32N 35°29' E 139°56'0 0.0
2016-Dec-03 15:32N 35°29' E 139°56'0 0.0
2016-Dec-03 14:29N 35°29' E 139°56'0 0.0
2016-Dec-03 13:08N 35°29' E 139°56'0 0.0
2016-Dec-03 12:29N 35°29' E 139°56'0 0.0
2016-Dec-03 11:32N 35°29' E 139°56'0 0.0
2016-Dec-03 10:17N 35°29' E 139°56'0 0.0
2016-Dec-03 09:32N 35°29' E 139°56'5 5.2
2016-Dec-03 08:33N 35°27' E 139°50'1111.0
2016-Dec-03 07:32N 35°16' E 139°46'1211.6
2016-Dec-03 06:33N 35°05' E 139°45'  
2016-Nov-30 09:24N 35°15' E 139°46'1011.7
2016-Nov-30 08:33N 35°25' E 139°43'1212.4
2016-Nov-30 07:33N 35°31' E 139°56'3 0.5
2016-Nov-30 02:18N 35°31' E 139°59'3 3.2
2016-Nov-30 01:15N 35°29' E 139°56'0 0.0
2016-Nov-30 00:24N 35°29' E 139°56'0 0.0
2016-Nov-29 23:27N 35°29' E 139°56'0 0.0
2016-Nov-29 22:33N 35°29' E 139°56'0 0.0
2016-Nov-29 21:33N 35°29' E 139°56'0 0.0
2016-Nov-29 20:33N 35°29' E 139°56'0 0.0
2016-Nov-29 19:30N 35°29' E 139°56'0 0.0
2016-Nov-29 18:18N 35°29' E 139°56'0 0.0
2016-Nov-29 17:21N 35°29' E 139°56'0 0.1
2016-Nov-29 16:30N 35°29' E 139°56'0 0.0
2016-Nov-29 15:27N 35°29' E 139°56'0 0.0
2016-Nov-29 12:32N 35°29' E 139°56'9 9.6
2016-Nov-29 11:33N 35°24' E 139°46'10 9.9
2016-Nov-29 10:33N 35°14' E 139°47'  
Track history (hours):
 
Tides and Currents Weather Stations Pressure Air Temp Water Temp Dewpoint Dewpoint Depression Visibility Wind Speed Wind Dir Waves Ship Positions

Meishomaru

Last reported at 2016-Dec-07 10:32 UTC. Time now 2016-Dec-09 23:17 UTC.
Position N 34°36' E 135°03'.

Length 68 m; draft 3.9 m.

Type: Tanker. MMSI: 431001216.

Date/timePositionNaut miles runAvg speedWind from/ knotsBaromVisibWave heightAir tempDewpointWater temp
2016-Dec-07 10:32N 34°36' E 135°03'10 9.8
2016-Dec-07 09:33N 34°27' E 135°03'1211.4
2016-Dec-07 08:29N 34°15' E 134°59'241 8.8
2016-Dec-06 05:09N 35°20' E 139°42'712.1
2016-Dec-06 04:33N 35°26' E 139°46'8 1.4
2016-Dec-05 22:33N 35°29' E 139°56'0 0.0
2016-Dec-05 20:32N 35°29' E 139°56'0 0.0
2016-Dec-05 11:29N 35°29' E 139°56'0 0.1
2016-Dec-05 10:32N 35°29' E 139°56'0 0.1
2016-Dec-05 08:29N 35°29' E 139°56'1011.0
2016-Dec-05 07:33N 35°23' E 139°46'1311.6
2016-Dec-05 06:24N 35°09' E 139°47'15 8.2
2016-Dec-05 04:33N 35°24' E 139°43'1212.4
2016-Dec-05 03:34N 35°31' E 139°56'6 0.2
2016-Dec-04 02:26N 35°31' E 140°02'2 0.7
2016-Dec-03 23:04N 35°31' E 139°60'4 7.4
2016-Dec-03 22:33N 35°29' E 139°56'0 0.0
2016-Dec-03 21:32N 35°29' E 139°56'0 0.0
2016-Dec-03 20:29N 35°29' E 139°56'0 0.0
2016-Dec-03 19:32N 35°29' E 139°56'0 0.0
2016-Dec-03 18:32N 35°29' E 139°56'0 0.0
2016-Dec-03 17:32N 35°29' E 139°56'0 0.0
2016-Dec-03 16:32N 35°29' E 139°56'0 0.0
2016-Dec-03 15:32N 35°29' E 139°56'0 0.0
2016-Dec-03 14:29N 35°29' E 139°56'0 0.0
2016-Dec-03 13:08N 35°29' E 139°56'0 0.0
2016-Dec-03 12:29N 35°29' E 139°56'0 0.0
2016-Dec-03 11:32N 35°29' E 139°56'0 0.0
2016-Dec-03 10:17N 35°29' E 139°56'0 0.0
2016-Dec-03 09:32N 35°29' E 139°56'5 5.2
2016-Dec-03 08:33N 35°27' E 139°50'1111.0
2016-Dec-03 07:32N 35°16' E 139°46'1211.6
2016-Dec-03 06:33N 35°05' E 139°45'  
2016-Nov-30 09:24N 35°15' E 139°46'1011.7
2016-Nov-30 08:33N 35°25' E 139°43'1212.4
2016-Nov-30 07:33N 35°31' E 139°56'3 0.5
2016-Nov-30 02:18N 35°31' E 139°59'3 3.2
2016-Nov-30 01:15N 35°29' E 139°56'0 0.0
2016-Nov-30 00:24N 35°29' E 139°56'0 0.0
2016-Nov-29 23:27N 35°29' E 139°56'0 0.0
2016-Nov-29 22:33N 35°29' E 139°56'0 0.0
2016-Nov-29 21:33N 35°29' E 139°56'0 0.0
2016-Nov-29 20:33N 35°29' E 139°56'0 0.0
2016-Nov-29 19:30N 35°29' E 139°56'0 0.0
2016-Nov-29 18:18N 35°29' E 139°56'0 0.0
2016-Nov-29 17:21N 35°29' E 139°56'0 0.1
2016-Nov-29 16:30N 35°29' E 139°56'0 0.0
2016-Nov-29 15:27N 35°29' E 139°56'0 0.0
2016-Nov-29 12:32N 35°29' E 139°56'9 9.6
2016-Nov-29 11:33N 35°24' E 139°46'10 9.9
2016-Nov-29 10:33N 35°14' E 139°47'  

Dump ship's entire track history